createdAt,value
2017-02-15T00:00:16.809Z,0
2017-02-15T00:00:57.291Z,0
2017-02-15T00:01:37.791Z,0
2017-02-15T00:02:18.282Z,0
2017-02-15T00:02:58.777Z,0
2017-02-15T00:03:39.281Z,0
2017-02-15T00:04:19.763Z,0
2017-02-15T00:05:00.273Z,0
2017-02-15T00:05:40.775Z,0
2017-02-15T00:06:21.273Z,0
2017-02-15T00:07:01.759Z,0
2017-02-15T00:07:42.248Z,0
2017-02-15T00:08:22.733Z,0
2017-02-15T00:09:03.233Z,0
2017-02-15T00:09:43.721Z,0
2017-02-15T00:10:24.216Z,0
2017-02-15T00:11:04.719Z,0
2017-02-15T00:11:45.206Z,0
2017-02-15T00:12:25.711Z,0
2017-02-15T00:13:06.214Z,0
2017-02-15T00:13:46.712Z,0
2017-02-15T00:14:27.206Z,0
2017-02-15T00:15:07.711Z,0
2017-02-15T00:15:48.210Z,0
2017-02-15T00:16:28.713Z,0
2017-02-15T00:17:09.206Z,0
2017-02-15T00:17:49.715Z,0
2017-02-15T00:18:30.201Z,0
2017-02-15T00:19:10.707Z,0
2017-02-15T00:19:51.198Z,0
2017-02-15T00:20:31.756Z,0
2017-02-15T00:21:12.261Z,0
2017-02-15T00:21:52.758Z,0
2017-02-15T00:22:33.257Z,0
2017-02-15T00:23:13.748Z,0
2017-02-15T00:23:54.239Z,0
2017-02-15T00:24:34.745Z,0
2017-02-15T00:25:15.251Z,0
2017-02-15T00:25:55.744Z,0
2017-02-15T00:26:36.226Z,0
2017-02-15T00:27:16.717Z,0
2017-02-15T00:27:57.217Z,0
2017-02-15T00:28:37.708Z,0
2017-02-15T00:29:18.202Z,0
2017-02-15T00:29:58.701Z,0
2017-02-15T00:30:39.198Z,0
2017-02-15T00:31:19.694Z,0
2017-02-15T00:32:00.187Z,0
2017-02-15T00:32:40.673Z,0
2017-02-15T00:33:21.167Z,0
2017-02-15T00:34:01.657Z,0
2017-02-15T00:34:42.148Z,0
2017-02-15T00:35:22.648Z,0
2017-02-15T00:36:03.146Z,0
2017-02-15T00:36:43.633Z,0
2017-02-15T00:37:24.143Z,0
2017-02-15T00:38:04.627Z,0
2017-02-15T00:38:45.148Z,0
2017-02-15T00:39:25.624Z,0
2017-02-15T00:40:06.136Z,0
2017-02-15T00:40:46.627Z,0
2017-02-15T00:41:27.134Z,0
2017-02-15T00:42:07.639Z,0
2017-02-15T00:42:48.139Z,0
2017-02-15T00:43:28.633Z,0
2017-02-15T00:44:09.133Z,0
2017-02-15T00:44:49.633Z,0
2017-02-15T00:45:30.112Z,0
2017-02-15T00:46:10.630Z,0
2017-02-15T00:46:51.204Z,0
2017-02-15T00:47:31.689Z,0
2017-02-15T00:48:12.183Z,0
2017-02-15T00:48:52.678Z,0
2017-02-15T00:49:33.170Z,0
2017-02-15T00:50:13.659Z,0
2017-02-15T00:50:54.154Z,0
2017-02-15T00:51:34.645Z,0
2017-02-15T00:52:15.133Z,0
2017-02-15T00:52:55.626Z,0
2017-02-15T00:53:36.125Z,0
2017-02-15T00:54:16.612Z,0
2017-02-15T00:54:57.101Z,0
2017-02-15T00:55:37.595Z,0
2017-02-15T00:56:18.087Z,0
2017-02-15T00:56:58.574Z,0
2017-02-15T00:57:39.067Z,0
2017-02-15T00:58:19.566Z,0
2017-02-15T00:59:00.071Z,0
2017-02-15T00:59:40.565Z,0
2017-02-15T01:00:21.063Z,0
2017-02-15T01:01:01.567Z,0
2017-02-15T01:01:42.065Z,0
2017-02-15T01:02:22.566Z,0
2017-02-15T01:03:03.056Z,0
2017-02-15T01:03:43.548Z,0
2017-02-15T01:04:24.065Z,0
2017-02-15T01:05:04.568Z,0
2017-02-15T01:05:45.052Z,0
2017-02-15T01:06:25.559Z,0
2017-02-15T01:07:06.053Z,0
2017-02-15T01:07:46.553Z,0
2017-02-15T01:08:27.032Z,0
2017-02-15T01:09:07.532Z,0
2017-02-15T01:09:48.016Z,0
2017-02-15T01:10:28.511Z,0
2017-02-15T01:11:09.018Z,0
2017-02-15T01:11:49.507Z,0
2017-02-15T01:12:30.007Z,0
2017-02-15T01:13:10.497Z,0
2017-02-15T01:13:51.011Z,0
2017-02-15T01:14:31.503Z,0
2017-02-15T01:15:12.009Z,0
2017-02-15T01:15:52.493Z,0
2017-02-15T01:16:32.996Z,0
2017-02-15T01:17:13.491Z,0
2017-02-15T01:17:53.981Z,0
2017-02-15T01:18:34.492Z,0
2017-02-15T01:19:14.974Z,0
2017-02-15T01:19:55.466Z,0
2017-02-15T01:20:35.970Z,0
2017-02-15T01:21:16.458Z,0
2017-02-15T01:21:56.936Z,0
2017-02-15T01:22:37.425Z,0
2017-02-15T01:23:17.915Z,0
2017-02-15T01:23:58.415Z,0
2017-02-15T01:24:38.900Z,0
2017-02-15T01:25:19.387Z,0
2017-02-15T01:25:59.896Z,0
2017-02-15T01:26:40.385Z,0
2017-02-15T01:27:20.892Z,0
2017-02-15T01:28:01.381Z,0
2017-02-15T01:28:41.863Z,0
2017-02-15T01:29:22.350Z,0
2017-02-15T01:30:02.849Z,0
2017-02-15T01:30:43.332Z,0
2017-02-15T01:31:23.835Z,0
2017-02-15T01:32:04.331Z,0
2017-02-15T01:32:44.826Z,0
2017-02-15T01:33:25.338Z,0
2017-02-15T01:34:05.831Z,0
2017-02-15T01:34:46.333Z,0
2017-02-15T01:35:26.818Z,0
2017-02-15T01:36:07.335Z,0
2017-02-15T01:36:47.819Z,0
2017-02-15T01:37:28.303Z,0
2017-02-15T01:38:08.802Z,0
2017-02-15T01:38:49.293Z,0
2017-02-15T01:39:29.778Z,0
2017-02-15T01:40:10.264Z,0
2017-02-15T01:40:50.757Z,0
2017-02-15T01:41:31.261Z,0
2017-02-15T01:42:11.758Z,0
2017-02-15T01:42:52.290Z,0
2017-02-15T01:43:32.778Z,0
2017-02-15T01:44:13.274Z,0
2017-02-15T01:44:53.774Z,0
2017-02-15T01:45:34.264Z,0
2017-02-15T01:46:14.754Z,0
2017-02-15T01:46:55.256Z,0
2017-02-15T01:47:35.744Z,0
2017-02-15T01:48:16.236Z,0
2017-02-15T01:48:56.730Z,0
2017-02-15T01:49:37.216Z,0
2017-02-15T01:50:17.705Z,0
2017-02-15T01:50:58.210Z,0
2017-02-15T01:51:38.704Z,0
2017-02-15T01:52:19.191Z,0
2017-02-15T01:52:59.676Z,0
2017-02-15T01:53:40.177Z,0
2017-02-15T01:54:20.664Z,0
2017-02-15T01:55:01.149Z,0
2017-02-15T01:55:41.637Z,0
2017-02-15T01:56:22.130Z,0
2017-02-15T01:57:02.622Z,0
2017-02-15T01:57:43.109Z,0
2017-02-15T01:58:23.607Z,0
2017-02-15T01:59:04.105Z,0
2017-02-15T01:59:44.593Z,0
2017-02-15T02:00:25.096Z,0
2017-02-15T02:01:05.593Z,0
2017-02-15T02:01:46.081Z,0
2017-02-15T02:02:26.564Z,0
2017-02-15T02:03:07.073Z,0
2017-02-15T02:03:47.566Z,0
2017-02-15T02:04:28.073Z,0
2017-02-15T02:05:08.558Z,0
2017-02-15T02:05:49.065Z,0
2017-02-15T02:06:29.554Z,0
2017-02-15T02:07:10.046Z,0
2017-02-15T02:07:50.544Z,0
2017-02-15T02:08:31.036Z,0
2017-02-15T02:09:11.522Z,0
2017-02-15T02:09:52.033Z,0
2017-02-15T02:10:32.520Z,0
2017-02-15T02:11:13.019Z,0
2017-02-15T02:11:53.507Z,0
2017-02-15T02:12:33.994Z,0
2017-02-15T02:13:14.489Z,0
2017-02-15T02:13:54.990Z,0
2017-02-15T02:14:35.476Z,0
2017-02-15T02:15:15.966Z,0
2017-02-15T02:15:56.454Z,0
2017-02-15T02:16:36.952Z,0
2017-02-15T02:17:17.440Z,0
2017-02-15T02:17:57.933Z,0
2017-02-15T02:18:38.432Z,0
2017-02-15T02:19:18.920Z,0
2017-02-15T02:19:59.408Z,0
2017-02-15T02:20:39.888Z,0
2017-02-15T02:21:20.400Z,0
2017-02-15T02:22:00.886Z,0
2017-02-15T02:22:41.388Z,0
2017-02-15T02:23:21.878Z,0
2017-02-15T02:24:02.366Z,0
2017-02-15T02:24:42.852Z,0
2017-02-15T02:25:23.349Z,0
2017-02-15T02:26:03.847Z,0
2017-02-15T02:26:44.332Z,0
2017-02-15T02:27:24.828Z,0
2017-02-15T02:28:05.325Z,0
2017-02-15T02:28:45.811Z,0
2017-02-15T02:29:26.295Z,0
2017-02-15T02:30:06.792Z,0
2017-02-15T02:30:47.287Z,0
2017-02-15T02:31:27.773Z,0
2017-02-15T02:32:08.268Z,0
2017-02-15T02:32:48.769Z,0
2017-02-15T02:33:29.251Z,0
2017-02-15T02:34:09.764Z,0
2017-02-15T02:34:50.265Z,0
2017-02-15T02:35:30.766Z,0
2017-02-15T02:36:11.245Z,0
2017-02-15T02:36:51.730Z,0
2017-02-15T02:37:32.214Z,0
2017-02-15T02:38:12.710Z,0
2017-02-15T02:38:53.206Z,0
2017-02-15T02:39:33.696Z,0
2017-02-15T02:40:14.212Z,0
2017-02-15T02:40:54.697Z,0
2017-02-15T02:41:35.180Z,0
2017-02-15T02:42:15.668Z,0
2017-02-15T02:42:56.171Z,0
2017-02-15T02:43:36.660Z,0
2017-02-15T02:44:17.145Z,0
2017-02-15T02:44:57.655Z,0
2017-02-15T02:45:38.136Z,0
2017-02-15T02:46:18.623Z,0
2017-02-15T02:46:59.116Z,0
2017-02-15T02:47:39.646Z,0
2017-02-15T02:48:20.107Z,0
2017-02-15T02:49:00.602Z,0
2017-02-15T02:49:41.094Z,0
2017-02-15T02:50:21.587Z,0
2017-02-15T02:51:02.091Z,0
2017-02-15T02:51:42.568Z,0
2017-02-15T02:52:23.059Z,0
2017-02-15T02:53:03.745Z,0
2017-02-15T02:53:44.236Z,0
2017-02-15T02:54:24.724Z,0
2017-02-15T02:55:05.221Z,0
2017-02-15T02:55:45.713Z,0
2017-02-15T02:56:26.227Z,0
2017-02-15T02:57:06.725Z,0
2017-02-15T02:57:47.241Z,0
2017-02-15T02:58:27.742Z,0
2017-02-15T03:00:55.708Z,0
2017-02-15T03:01:36.205Z,0
2017-02-15T03:02:16.706Z,0
2017-02-15T03:02:57.387Z,0
2017-02-15T03:03:37.875Z,0
2017-02-15T03:04:18.364Z,0
2017-02-15T03:04:58.852Z,0
2017-02-15T03:05:39.364Z,0
2017-02-15T03:06:19.848Z,0
2017-02-15T03:07:00.359Z,0
2017-02-15T03:07:40.848Z,0
2017-02-15T03:08:21.334Z,0
2017-02-15T03:09:01.814Z,0
2017-02-15T03:09:42.318Z,0
2017-02-15T03:10:22.838Z,0
2017-02-15T03:11:03.295Z,0
2017-02-15T03:11:43.780Z,0
2017-02-15T03:12:24.258Z,0
2017-02-15T03:13:04.750Z,0
2017-02-15T03:13:45.223Z,0
2017-02-15T03:14:25.705Z,0
2017-02-15T03:15:06.199Z,0
2017-02-15T03:15:46.702Z,0
2017-02-15T03:16:27.188Z,0
2017-02-15T03:17:07.680Z,0
2017-02-15T03:17:48.190Z,0
2017-02-15T03:18:28.694Z,0
2017-02-15T03:19:09.182Z,0
2017-02-15T03:19:49.669Z,0
2017-02-15T03:20:30.168Z,0
2017-02-15T03:21:10.660Z,0
2017-02-15T03:21:51.146Z,0
2017-02-15T03:22:31.646Z,0
2017-02-15T03:23:12.140Z,0
2017-02-15T03:23:52.630Z,0
2017-02-15T03:24:33.116Z,0
2017-02-15T03:25:13.610Z,0
2017-02-15T03:25:54.100Z,0
2017-02-15T03:26:34.587Z,0
2017-02-15T03:27:15.082Z,0
2017-02-15T03:27:55.585Z,0
2017-02-15T03:28:36.067Z,0
2017-02-15T03:29:16.559Z,0
2017-02-15T03:29:57.055Z,0
2017-02-15T03:30:37.543Z,0
2017-02-15T03:31:18.033Z,0
2017-02-15T03:31:58.530Z,0
2017-02-15T03:32:39.026Z,0
2017-02-15T03:33:19.660Z,0
2017-02-15T03:34:00.172Z,0
2017-02-15T03:34:40.677Z,0
2017-02-15T03:35:21.177Z,0
2017-02-15T03:36:01.679Z,0
2017-02-15T03:36:42.166Z,0
2017-02-15T03:37:22.659Z,0
2017-02-15T03:38:03.168Z,0
2017-02-15T03:38:43.656Z,0
2017-02-15T03:39:24.154Z,0
2017-02-15T03:40:04.640Z,0
2017-02-15T03:40:45.126Z,0
2017-02-15T03:41:25.608Z,0
2017-02-15T03:42:06.092Z,0
2017-02-15T03:42:46.577Z,0
2017-02-15T03:43:27.059Z,0
2017-02-15T03:44:07.546Z,0
2017-02-15T03:44:48.043Z,0
2017-02-15T03:45:28.533Z,0
2017-02-15T03:46:09.017Z,0
2017-02-15T03:46:49.504Z,0
2017-02-15T03:47:29.989Z,0
2017-02-15T03:48:10.470Z,0
2017-02-15T03:48:50.961Z,0
2017-02-15T03:49:31.462Z,0
2017-02-15T03:50:11.958Z,0
2017-02-15T03:50:52.463Z,0
2017-02-15T03:51:32.948Z,0
2017-02-15T03:52:13.435Z,0
2017-02-15T03:52:53.925Z,0
2017-02-15T03:53:34.433Z,0
2017-02-15T03:54:14.915Z,0
2017-02-15T03:54:55.411Z,0
2017-02-15T03:55:35.906Z,0
2017-02-15T03:56:16.393Z,0
2017-02-15T03:56:56.907Z,0
2017-02-15T03:57:37.402Z,0
2017-02-15T03:58:17.904Z,0
2017-02-15T03:58:58.393Z,0
2017-02-15T03:59:38.888Z,0
2017-02-15T04:00:19.383Z,0
2017-02-15T04:00:59.865Z,0
2017-02-15T04:01:40.351Z,0
2017-02-15T04:02:20.838Z,0
2017-02-15T04:03:01.326Z,0
2017-02-15T04:03:41.804Z,0
2017-02-15T04:04:22.291Z,0
2017-02-15T04:05:02.778Z,0
2017-02-15T04:05:43.284Z,0
2017-02-15T04:06:23.798Z,0
2017-02-15T04:07:04.292Z,0
2017-02-15T04:07:44.788Z,0
2017-02-15T04:08:25.281Z,0
2017-02-15T04:09:05.794Z,0
2017-02-15T04:09:46.259Z,0
2017-02-15T04:10:26.753Z,0
2017-02-15T04:11:07.241Z,0
2017-02-15T04:11:47.723Z,0
2017-02-15T04:12:28.211Z,0
2017-02-15T04:13:08.700Z,0
2017-02-15T04:13:49.189Z,0
2017-02-15T04:14:29.686Z,0
2017-02-15T04:15:10.172Z,0
2017-02-15T04:15:50.647Z,0
2017-02-15T04:16:31.136Z,0
2017-02-15T04:17:11.617Z,0
2017-02-15T04:17:52.107Z,0
2017-02-15T04:18:32.587Z,0
2017-02-15T04:19:13.078Z,0
2017-02-15T04:19:53.582Z,0
2017-02-15T04:20:34.068Z,0
2017-02-15T04:21:14.548Z,0
2017-02-15T04:21:55.033Z,0
2017-02-15T04:22:35.526Z,0
2017-02-15T04:23:16.024Z,0
2017-02-15T04:23:56.508Z,0
2017-02-15T04:24:37.000Z,0
2017-02-15T04:25:17.478Z,0
2017-02-15T04:25:57.973Z,0
2017-02-15T04:26:38.468Z,0
2017-02-15T04:27:18.960Z,0
2017-02-15T04:27:59.451Z,0
2017-02-15T04:28:39.953Z,0
2017-02-15T04:29:20.441Z,0
2017-02-15T04:30:00.929Z,0
2017-02-15T04:30:41.438Z,0
2017-02-15T04:31:21.929Z,0
2017-02-15T04:32:02.435Z,0
2017-02-15T04:32:42.921Z,0
2017-02-15T04:33:23.430Z,0
2017-02-15T04:34:03.918Z,0
2017-02-15T04:34:44.415Z,0
2017-02-15T04:35:24.912Z,0
2017-02-15T04:36:05.398Z,0
2017-02-15T04:36:45.911Z,0
2017-02-15T04:37:26.405Z,0
2017-02-15T04:38:06.905Z,0
2017-02-15T04:38:47.396Z,0
2017-02-15T04:39:27.903Z,0
2017-02-15T04:40:08.392Z,0
2017-02-15T04:40:48.879Z,0
2017-02-15T04:41:29.376Z,0
2017-02-15T04:42:09.864Z,0
2017-02-15T04:42:50.353Z,0
2017-02-15T04:43:30.851Z,0
2017-02-15T04:44:11.380Z,0
2017-02-15T04:44:51.836Z,0
2017-02-15T04:45:32.322Z,0
2017-02-15T04:46:12.827Z,0
2017-02-15T04:46:53.312Z,0
2017-02-15T04:47:33.803Z,0
2017-02-15T04:48:14.296Z,0
2017-02-15T04:48:54.791Z,0
2017-02-15T04:49:35.285Z,0
2017-02-15T04:50:15.778Z,0
2017-02-15T04:50:56.293Z,0
2017-02-15T04:51:36.794Z,0
2017-02-15T04:52:17.287Z,0
2017-02-15T04:52:57.796Z,0
2017-02-15T04:53:38.279Z,0
2017-02-15T04:54:18.761Z,0
2017-02-15T04:54:59.248Z,0
2017-02-15T04:55:39.738Z,0
2017-02-15T04:56:20.239Z,0
2017-02-15T04:57:00.727Z,0
2017-02-15T04:57:41.213Z,0
2017-02-15T04:58:21.740Z,0
2017-02-15T04:59:02.236Z,0
2017-02-15T04:59:42.891Z,0
2017-02-15T05:00:23.387Z,0
2017-02-15T05:01:03.884Z,0
2017-02-15T05:01:44.379Z,0
2017-02-15T05:02:24.864Z,0
2017-02-15T05:03:05.346Z,0
2017-02-15T05:03:45.848Z,0
2017-02-15T05:04:26.336Z,0
2017-02-15T05:05:06.820Z,0
2017-02-15T05:05:47.328Z,0
2017-02-15T05:06:27.810Z,0
2017-02-15T05:07:08.312Z,0
2017-02-15T05:07:48.790Z,0
2017-02-15T05:08:29.291Z,0
2017-02-15T05:09:09.788Z,0
2017-02-15T05:09:50.283Z,0
2017-02-15T05:10:30.772Z,0
2017-02-15T05:11:11.266Z,0
2017-02-15T05:11:51.777Z,0
2017-02-15T05:12:32.268Z,0
2017-02-15T05:13:12.776Z,0
2017-02-15T05:13:53.269Z,0
2017-02-15T05:14:33.769Z,0
2017-02-15T05:15:14.269Z,0
2017-02-15T05:15:54.773Z,0
2017-02-15T05:16:35.262Z,0
2017-02-15T05:17:15.748Z,0
2017-02-15T05:17:56.237Z,0
2017-02-15T05:18:36.729Z,0
2017-02-15T05:19:17.218Z,0
2017-02-15T05:19:57.687Z,0
2017-02-15T05:20:38.209Z,0
2017-02-15T05:21:18.705Z,0
2017-02-15T05:21:59.215Z,0
2017-02-15T05:22:39.708Z,0
2017-02-15T05:23:20.210Z,0
2017-02-15T05:24:00.702Z,0
2017-02-15T05:24:41.187Z,0
2017-02-15T05:25:21.666Z,0
2017-02-15T05:26:02.157Z,0
2017-02-15T05:26:42.657Z,0
2017-02-15T05:27:23.153Z,0
2017-02-15T05:28:03.658Z,0
2017-02-15T05:28:44.151Z,0
2017-02-15T05:29:24.651Z,0
2017-02-15T05:30:05.248Z,0
2017-02-15T05:30:45.754Z,0
2017-02-15T05:31:26.255Z,0
2017-02-15T05:32:06.757Z,0
2017-02-15T05:32:47.246Z,0
2017-02-15T05:33:27.752Z,0
2017-02-15T05:34:08.260Z,0
2017-02-15T05:34:48.746Z,0
2017-02-15T05:35:29.228Z,0
2017-02-15T05:36:09.715Z,0
2017-02-15T05:36:50.207Z,0
2017-02-15T05:37:30.694Z,0
2017-02-15T05:38:11.195Z,0
2017-02-15T05:38:51.699Z,0
2017-02-15T05:39:32.194Z,0
2017-02-15T05:40:12.688Z,0
2017-02-15T05:40:53.178Z,0
2017-02-15T05:41:33.688Z,0
2017-02-15T05:42:14.193Z,0
2017-02-15T05:42:54.695Z,0
2017-02-15T05:43:35.189Z,0
2017-02-15T05:44:15.679Z,0
2017-02-15T05:44:56.164Z,0
2017-02-15T05:45:36.659Z,0
2017-02-15T05:46:17.158Z,0
2017-02-15T05:46:57.647Z,0
2017-02-15T05:47:38.140Z,0
2017-02-15T05:48:18.638Z,0
2017-02-15T05:48:59.170Z,0
2017-02-15T05:49:39.677Z,0
2017-02-15T05:50:20.169Z,0
2017-02-15T05:51:00.676Z,0
2017-02-15T05:51:41.167Z,0
2017-02-15T05:52:21.657Z,0
2017-02-15T05:53:02.151Z,0
2017-02-15T05:53:42.655Z,0
2017-02-15T05:54:23.150Z,0
2017-02-15T05:55:03.640Z,0
2017-02-15T05:55:44.138Z,0
2017-02-15T05:56:24.632Z,0
2017-02-15T05:57:05.120Z,0
2017-02-15T05:57:45.606Z,0
2017-02-15T05:58:26.107Z,0
2017-02-15T05:59:06.596Z,0
2017-02-15T05:59:47.089Z,0
2017-02-15T06:00:27.581Z,0
2017-02-15T06:01:08.083Z,0
2017-02-15T06:01:48.578Z,0
2017-02-15T06:02:29.076Z,0
2017-02-15T06:03:09.570Z,0
2017-02-15T06:03:50.090Z,0
2017-02-15T06:04:30.594Z,0
2017-02-15T06:05:11.076Z,0
2017-02-15T06:05:51.572Z,0
2017-02-15T06:06:32.068Z,0
2017-02-15T06:07:12.568Z,0
2017-02-15T06:07:53.073Z,0
2017-02-15T06:08:33.560Z,0
2017-02-15T06:09:14.063Z,0
2017-02-15T06:09:54.557Z,0
2017-02-15T06:10:35.064Z,0
2017-02-15T06:11:15.566Z,0
2017-02-15T06:11:56.172Z,0
2017-02-15T06:12:36.668Z,4
2017-02-15T06:13:17.168Z,4
2017-02-15T06:13:57.652Z,4
2017-02-15T06:14:38.144Z,4
2017-02-15T06:15:18.646Z,0
2017-02-15T06:15:59.135Z,0
2017-02-15T06:16:39.623Z,4
2017-02-15T06:17:20.135Z,4
2017-02-15T06:18:00.630Z,4
2017-02-15T06:18:41.129Z,4
2017-02-15T06:19:21.612Z,4
2017-02-15T06:20:02.085Z,4
2017-02-15T06:20:42.608Z,4
2017-02-15T06:21:23.111Z,8
2017-02-15T06:22:03.612Z,8
2017-02-15T06:22:44.106Z,4
2017-02-15T06:23:24.642Z,8
2017-02-15T06:24:05.098Z,8
2017-02-15T06:24:45.610Z,12
2017-02-15T06:25:26.094Z,8
2017-02-15T06:26:06.577Z,12
2017-02-15T06:26:47.063Z,12
2017-02-15T06:27:27.554Z,12
2017-02-15T06:28:08.054Z,12
2017-02-15T06:28:48.538Z,16
2017-02-15T06:29:29.050Z,16
2017-02-15T06:30:09.539Z,16
2017-02-15T06:30:50.059Z,16
2017-02-15T06:31:30.509Z,20
2017-02-15T06:32:11.013Z,20
2017-02-15T06:32:51.502Z,20
2017-02-15T06:33:31.999Z,24
2017-02-15T06:34:12.495Z,24
2017-02-15T06:34:52.980Z,28
2017-02-15T06:35:33.494Z,24
2017-02-15T06:36:13.983Z,28
2017-02-15T06:36:54.470Z,28
2017-02-15T06:37:34.959Z,32
2017-02-15T06:38:15.464Z,32
2017-02-15T06:38:55.947Z,36
2017-02-15T06:39:36.441Z,36
2017-02-15T06:40:16.939Z,36
2017-02-15T06:40:57.434Z,44
2017-02-15T06:41:37.943Z,44
2017-02-15T06:42:18.426Z,44
2017-02-15T06:42:58.910Z,44
2017-02-15T06:43:39.391Z,48
2017-02-15T06:44:19.880Z,52
2017-02-15T06:45:00.384Z,56
2017-02-15T06:45:40.862Z,56
2017-02-15T06:46:21.336Z,56
2017-02-15T06:47:01.848Z,60
2017-02-15T06:47:42.358Z,64
2017-02-15T06:48:22.837Z,68
2017-02-15T06:49:03.332Z,68
2017-02-15T06:49:43.832Z,72
2017-02-15T06:50:24.314Z,76
2017-02-15T06:51:04.801Z,80
2017-02-15T06:51:45.295Z,80
2017-02-15T06:52:25.791Z,84
2017-02-15T06:53:06.280Z,88
2017-02-15T06:53:46.765Z,96
2017-02-15T06:54:27.275Z,100
2017-02-15T06:55:07.758Z,104
2017-02-15T06:55:48.268Z,108
2017-02-15T06:56:28.771Z,112
2017-02-15T06:57:09.270Z,116
2017-02-15T06:57:49.760Z,120
2017-02-15T06:58:30.244Z,128
2017-02-15T06:59:10.726Z,132
2017-02-15T06:59:51.216Z,140
2017-02-15T07:00:31.723Z,144
2017-02-15T07:01:12.209Z,152
2017-02-15T07:01:52.721Z,156
2017-02-15T07:02:33.216Z,164
2017-02-15T07:03:13.718Z,172
2017-02-15T07:03:54.205Z,176
2017-02-15T07:04:34.713Z,188
2017-02-15T07:05:15.201Z,196
2017-02-15T07:05:55.687Z,204
2017-02-15T07:06:36.187Z,212
2017-02-15T07:07:16.678Z,220
2017-02-15T07:07:57.163Z,232
2017-02-15T07:08:37.656Z,240
2017-02-15T07:09:18.157Z,248
2017-02-15T07:09:58.638Z,260
2017-02-15T07:10:39.262Z,268
2017-02-15T07:11:19.745Z,280
2017-02-15T07:12:00.236Z,292
2017-02-15T07:12:40.749Z,304
2017-02-15T07:13:21.327Z,312
2017-02-15T07:14:01.813Z,324
2017-02-15T07:14:42.320Z,336
2017-02-15T07:15:22.811Z,348
2017-02-15T07:16:03.294Z,360
2017-02-15T07:16:43.781Z,372
2017-02-15T07:17:24.288Z,380
2017-02-15T07:18:04.776Z,396
2017-02-15T07:18:45.311Z,404
2017-02-15T07:19:25.775Z,420
2017-02-15T07:20:06.316Z,432
2017-02-15T07:20:46.802Z,444
2017-02-15T07:21:27.287Z,456
2017-02-15T07:22:07.781Z,468
2017-02-15T07:22:48.273Z,480
2017-02-15T07:23:28.760Z,492
2017-02-15T07:24:09.249Z,500
2017-02-15T07:24:49.743Z,516
2017-02-15T07:25:30.244Z,524
2017-02-15T07:26:10.729Z,540
2017-02-15T07:26:51.293Z,548
2017-02-15T07:27:31.798Z,560
2017-02-15T07:28:12.272Z,572
2017-02-15T07:28:52.755Z,592
2017-02-15T07:29:33.251Z,604
2017-02-15T07:30:13.752Z,616
2017-02-15T07:30:54.254Z,624
2017-02-15T07:31:34.737Z,640
2017-02-15T07:32:15.236Z,656
2017-02-15T07:32:55.735Z,668
2017-02-15T07:33:36.233Z,680
2017-02-15T07:34:16.723Z,692
2017-02-15T07:34:57.211Z,704
2017-02-15T07:35:37.694Z,716
2017-02-15T07:36:18.184Z,732
2017-02-15T07:36:58.686Z,740
2017-02-15T07:37:39.161Z,756
2017-02-15T07:38:19.653Z,772
2017-02-15T07:39:00.143Z,780
2017-02-15T07:39:40.707Z,792
2017-02-15T07:40:21.203Z,796
2017-02-15T07:41:01.688Z,816
2017-02-15T07:41:42.201Z,824
2017-02-15T07:42:22.684Z,832
2017-02-15T07:43:03.270Z,844
2017-02-15T07:43:43.758Z,852
2017-02-15T07:44:24.267Z,872
2017-02-15T07:45:04.774Z,884
2017-02-15T07:45:45.265Z,884
2017-02-15T07:46:25.772Z,900
2017-02-15T07:47:06.268Z,912
2017-02-15T07:47:46.775Z,916
2017-02-15T07:48:27.273Z,932
2017-02-15T07:49:07.769Z,940
2017-02-15T07:49:48.269Z,948
2017-02-15T07:50:28.775Z,968
2017-02-15T07:51:09.260Z,972
2017-02-15T07:51:49.754Z,980
2017-02-15T07:52:30.270Z,992
2017-02-15T07:53:10.773Z,996
2017-02-15T07:53:51.258Z,1012
2017-02-15T07:54:31.746Z,1020
2017-02-15T07:55:12.235Z,1028
2017-02-15T07:55:52.729Z,1040
2017-02-15T07:56:33.218Z,1044
2017-02-15T07:57:13.706Z,1060
2017-02-15T07:57:54.192Z,1068
2017-02-15T07:58:34.678Z,1080
2017-02-15T07:59:15.177Z,1088
2017-02-15T07:59:55.668Z,1092
2017-02-15T08:00:36.164Z,1100
2017-02-15T08:01:16.659Z,1112
2017-02-15T08:01:57.148Z,1124
2017-02-15T08:02:37.660Z,1132
2017-02-15T08:03:18.145Z,1144
2017-02-15T08:03:58.653Z,1152
2017-02-15T08:04:39.143Z,1164
2017-02-15T08:05:19.657Z,1172
2017-02-15T08:06:00.143Z,1184
2017-02-15T08:06:40.651Z,1196
2017-02-15T08:07:21.156Z,1204
2017-02-15T08:08:01.654Z,1216
2017-02-15T08:08:42.150Z,1228
2017-02-15T08:09:22.693Z,1240
2017-02-15T08:10:05.275Z,1252
2017-02-15T08:10:46.250Z,1264
2017-02-15T08:11:25.747Z,1272
2017-02-15T08:12:06.248Z,1280
2017-02-15T08:12:46.746Z,1284
2017-02-15T08:13:27.267Z,1292
2017-02-15T08:14:07.734Z,1300
2017-02-15T08:14:48.219Z,1300
2017-02-15T08:15:28.709Z,1312
2017-02-15T08:16:09.199Z,1316
2017-02-15T08:16:49.691Z,1320
2017-02-15T08:17:30.194Z,1328
2017-02-15T08:18:10.698Z,1336
2017-02-15T08:18:51.196Z,1344
2017-02-15T08:19:31.693Z,1348
2017-02-15T08:20:12.182Z,1360
2017-02-15T08:20:52.669Z,1364
2017-02-15T08:21:33.302Z,1372
2017-02-15T08:22:13.794Z,1380
2017-02-15T08:22:54.285Z,1392
2017-02-15T08:23:34.958Z,1400
2017-02-15T08:24:15.483Z,1412
2017-02-15T08:24:55.968Z,1416
2017-02-15T08:25:36.457Z,1424
2017-02-15T08:26:16.954Z,1428
2017-02-15T08:26:57.443Z,1436
2017-02-15T08:27:37.952Z,1440
2017-02-15T08:28:18.443Z,1448
2017-02-15T08:28:58.944Z,1452
2017-02-15T08:29:39.534Z,1452
2017-02-15T08:30:20.028Z,1460
2017-02-15T08:31:00.515Z,1464
2017-02-15T08:31:41.001Z,1468
2017-02-15T08:32:21.506Z,1472
2017-02-15T08:33:02.003Z,1480
2017-02-15T08:33:42.526Z,1480
2017-02-15T08:34:23.080Z,1488
2017-02-15T08:35:03.654Z,1488
2017-02-15T08:35:44.173Z,1492
2017-02-15T08:36:24.669Z,1496
2017-02-15T08:37:05.173Z,1496
2017-02-15T08:37:45.669Z,1504
2017-02-15T08:38:26.699Z,1504
2017-02-15T08:39:06.645Z,1508
2017-02-15T08:39:47.133Z,1520
2017-02-15T08:40:27.624Z,1524
2017-02-15T08:41:08.120Z,1528
2017-02-15T08:41:48.618Z,1540
2017-02-15T08:42:29.123Z,1548
2017-02-15T08:43:09.606Z,1552
2017-02-15T08:43:50.118Z,1556
2017-02-15T08:44:30.636Z,1560
2017-02-15T08:45:11.134Z,1572
2017-02-15T08:45:51.631Z,1584
2017-02-15T08:46:32.123Z,1592
2017-02-15T08:47:12.630Z,1600
2017-02-15T08:47:53.123Z,1608
2017-02-15T08:48:33.599Z,1612
2017-02-15T08:49:14.094Z,1616
2017-02-15T08:49:54.599Z,1628
2017-02-15T08:50:35.114Z,1640
2017-02-15T08:51:15.586Z,1652
2017-02-15T08:51:56.072Z,1660
2017-02-15T08:52:36.572Z,1672
2017-02-15T08:53:17.056Z,1668
2017-02-15T08:53:57.555Z,1692
2017-02-15T08:54:38.056Z,1700
2017-02-15T08:55:18.553Z,1704
2017-02-15T08:55:59.042Z,1704
2017-02-15T08:56:39.532Z,1708
2017-02-15T08:57:20.023Z,1712
2017-02-15T08:58:00.517Z,1716
2017-02-15T08:58:41.000Z,1716
2017-02-15T08:59:22.212Z,1720
2017-02-15T09:00:02.063Z,1720
2017-02-15T09:00:42.548Z,1724
2017-02-15T09:01:23.049Z,1724
2017-02-15T09:02:03.550Z,1724
2017-02-15T09:02:44.038Z,1728
2017-02-15T09:03:24.524Z,1728
2017-02-15T09:04:05.021Z,1728
2017-02-15T09:04:45.546Z,1732
2017-02-15T09:05:26.032Z,1732
2017-02-15T09:06:06.539Z,1724
2017-02-15T09:06:47.048Z,1732
2017-02-15T09:07:27.542Z,1728
2017-02-15T09:08:08.037Z,1728
2017-02-15T09:08:48.542Z,1732
2017-02-15T09:09:29.046Z,1724
2017-02-15T09:10:09.542Z,1724
2017-02-15T09:10:50.031Z,1724
2017-02-15T09:11:30.541Z,1724
2017-02-15T09:12:11.033Z,1720
2017-02-15T09:12:51.542Z,1720
2017-02-15T09:13:32.029Z,1716
2017-02-15T09:14:12.538Z,1716
2017-02-15T09:14:53.038Z,1720
2017-02-15T09:15:33.534Z,1728
2017-02-15T09:16:14.095Z,1728
2017-02-15T09:16:54.589Z,1732
2017-02-15T09:17:35.105Z,1732
2017-02-15T09:18:15.605Z,1732
2017-02-15T09:18:56.097Z,1724
2017-02-15T09:19:36.581Z,1728
2017-02-15T09:20:17.082Z,1732
2017-02-15T09:20:57.570Z,1732
2017-02-15T09:21:38.149Z,1724
2017-02-15T09:22:18.639Z,1720
2017-02-15T09:22:59.187Z,1720
2017-02-15T09:23:39.701Z,1720
2017-02-15T09:24:20.189Z,1716
2017-02-15T09:25:00.693Z,1712
2017-02-15T09:25:41.203Z,1704
2017-02-15T09:26:21.701Z,1692
2017-02-15T09:27:02.199Z,1696
2017-02-15T09:27:42.697Z,1716
2017-02-15T09:28:23.210Z,1732
2017-02-15T09:29:03.696Z,1736
2017-02-15T09:29:44.241Z,1740
2017-02-15T09:30:24.693Z,1740
2017-02-15T09:31:05.193Z,1736
2017-02-15T09:31:45.690Z,1732
2017-02-15T09:32:26.180Z,1728
2017-02-15T09:33:06.692Z,1732
2017-02-15T09:33:47.190Z,1732
2017-02-15T09:34:27.717Z,1736
2017-02-15T09:35:08.207Z,1736
2017-02-15T09:35:48.722Z,1732
2017-02-15T09:36:29.226Z,1724
2017-02-15T09:37:09.753Z,1720
2017-02-15T09:37:50.205Z,1700
2017-02-15T09:38:30.690Z,1696
2017-02-15T09:39:11.179Z,1704
2017-02-15T09:39:51.687Z,1724
2017-02-15T09:40:32.188Z,1740
2017-02-15T09:41:12.674Z,1724
2017-02-15T09:41:53.166Z,1716
2017-02-15T09:42:33.664Z,1744
2017-02-15T09:43:14.162Z,1788